createdAt,value
2022-10-25T00:00:07.657Z,24.84
2022-10-25T00:01:18.611Z,24.84
2022-10-25T00:02:23.617Z,24.85
2022-10-25T00:03:25.326Z,24.85
2022-10-25T00:04:26.826Z,24.84
2022-10-25T00:05:28.424Z,24.84
2022-10-25T00:06:29.992Z,24.85
2022-10-25T00:07:31.534Z,24.85
2022-10-25T00:08:33.052Z,24.85
2022-10-25T00:09:34.596Z,24.85
2022-10-25T00:10:37.004Z,24.86
2022-10-25T00:11:38.533Z,24.84
2022-10-25T00:12:44.854Z,24.84
2022-10-25T00:13:48.963Z,24.84
2022-10-25T00:14:50.526Z,24.83
2022-10-25T00:15:52.048Z,24.84
2022-10-25T00:16:53.567Z,24.83
2022-10-25T00:17:55.211Z,24.81
2022-10-25T00:18:56.954Z,24.82
2022-10-25T00:19:58.471Z,24.80
2022-10-25T00:21:04.768Z,24.78
2022-10-25T00:22:06.343Z,24.81
2022-10-25T00:23:07.888Z,24.79
2022-10-25T00:24:12.271Z,24.80
2022-10-25T00:25:13.845Z,24.81
2022-10-25T00:26:15.467Z,24.81
2022-10-25T00:27:16.976Z,24.79
2022-10-25T00:28:18.486Z,24.80
2022-10-25T00:29:20.120Z,24.77
2022-10-25T00:30:21.702Z,24.77
2022-10-25T00:31:24.408Z,24.75
2022-10-25T00:32:26.017Z,24.76
2022-10-25T00:33:30.802Z,24.76
2022-10-25T00:34:32.435Z,24.75
2022-10-25T00:35:36.375Z,24.74
2022-10-25T00:36:37.972Z,24.76
2022-10-25T00:37:39.583Z,24.77
2022-10-25T00:38:41.818Z,24.76
2022-10-25T00:39:43.506Z,24.79
2022-10-25T00:40:45.038Z,24.77
2022-10-25T00:41:46.554Z,24.74
2022-10-25T00:42:48.417Z,24.73
2022-10-25T00:43:55.524Z,24.74
2022-10-25T00:45:02.430Z,24.75
2022-10-25T00:46:12.819Z,24.76
2022-10-25T00:47:39.666Z,24.75
2022-10-25T00:48:45.721Z,24.79
2022-10-25T00:49:55.339Z,24.77
2022-10-25T00:50:57.520Z,24.80
2022-10-25T00:52:04.593Z,24.78
2022-10-25T00:53:11.293Z,24.79
2022-10-25T00:54:16.604Z,24.82
2022-10-25T00:55:20.631Z,24.82
2022-10-25T00:56:27.611Z,24.81
2022-10-25T00:57:37.730Z,24.81
2022-10-25T00:58:40.916Z,24.80
2022-10-25T00:59:43.942Z,24.81
2022-10-25T01:00:46.011Z,24.84
2022-10-25T01:01:47.957Z,24.80
2022-10-25T01:02:49.741Z,24.78
2022-10-25T01:03:54.302Z,24.79
2022-10-25T01:04:56.295Z,24.80
2022-10-25T01:05:59.724Z,24.78
2022-10-25T01:07:02.390Z,24.79
2022-10-25T01:08:05.307Z,24.80
2022-10-25T01:09:10.518Z,24.79
2022-10-25T01:10:12.531Z,24.81
2022-10-25T01:11:14.101Z,24.83
2022-10-25T01:12:15.645Z,24.82
2022-10-25T01:13:17.526Z,24.81
2022-10-25T01:14:19.468Z,24.81
2022-10-25T01:15:27.554Z,24.79
2022-10-25T01:16:58.459Z,24.76
2022-10-25T01:18:26.143Z,24.78
2022-10-25T01:19:57.865Z,24.78
2022-10-25T01:21:36.284Z,24.77
2022-10-25T01:23:03.986Z,24.76
2022-10-25T01:24:33.210Z,24.74
2022-10-25T01:26:08.782Z,24.74
2022-10-25T01:27:16.397Z,24.74
2022-10-25T01:28:42.518Z,24.74
2022-10-25T01:30:06.038Z,24.71
2022-10-25T01:31:16.649Z,24.71
2022-10-25T01:32:32.594Z,24.73
2022-10-25T01:33:44.093Z,24.77
2022-10-25T01:35:07.441Z,24.79
2022-10-25T01:36:16.575Z,24.81
2022-10-25T01:37:26.404Z,24.80
2022-10-25T01:38:41.190Z,24.78
2022-10-25T01:39:59.863Z,24.78
2022-10-25T01:41:07.802Z,24.79
2022-10-25T01:42:33.818Z,24.79
2022-10-25T01:43:46.349Z,24.78
2022-10-25T01:45:09.597Z,24.78
2022-10-25T01:46:20.571Z,24.79
2022-10-25T01:47:27.998Z,24.80
2022-10-25T01:48:39.910Z,24.78
2022-10-25T01:49:44.475Z,24.79
2022-10-25T01:50:47.669Z,24.75
2022-10-25T01:51:49.215Z,24.73
2022-10-25T01:52:50.829Z,24.73
2022-10-25T01:53:52.551Z,24.74
2022-10-25T01:54:54.710Z,24.74
2022-10-25T01:56:00.815Z,24.71
2022-10-25T01:57:11.056Z,24.71
2022-10-25T01:58:37.095Z,24.69
2022-10-25T01:59:49.646Z,24.68
2022-10-25T02:01:07.905Z,24.72
2022-10-25T02:02:15.305Z,24.70
2022-10-25T02:03:22.622Z,24.70
2022-10-25T02:04:39.581Z,24.71
2022-10-25T02:05:56.077Z,24.68
2022-10-25T02:07:01.707Z,24.69
2022-10-25T02:08:09.436Z,24.68
2022-10-25T02:09:20.560Z,24.66
2022-10-25T02:10:49.535Z,24.68
2022-10-25T02:11:53.001Z,24.70
2022-10-25T02:13:09.495Z,24.67
2022-10-25T02:14:22.316Z,24.69
2022-10-25T02:15:40.618Z,24.66
2022-10-25T02:16:53.922Z,24.66
2022-10-25T02:18:00.476Z,24.68
2022-10-25T02:19:06.584Z,24.68
2022-10-25T02:20:09.443Z,24.70
2022-10-25T02:21:12.879Z,24.71
2022-10-25T02:22:15.706Z,24.69
2022-10-25T02:23:18.863Z,24.68
2022-10-25T02:24:24.153Z,24.67
2022-10-25T02:25:27.000Z,24.69
2022-10-25T02:26:28.770Z,24.69
2022-10-25T02:27:32.033Z,24.70
2022-10-25T02:28:37.569Z,24.69
2022-10-25T02:29:41.572Z,24.69
2022-10-25T02:30:44.482Z,24.68
2022-10-25T02:31:46.283Z,24.68
2022-10-25T02:32:47.910Z,24.67
2022-10-25T02:33:50.262Z,24.68
2022-10-25T02:34:51.807Z,24.68
2022-10-25T02:36:25.885Z,24.64
2022-10-25T02:37:27.410Z,24.70
2022-10-25T02:38:28.964Z,24.71
2022-10-25T02:39:31.746Z,24.67
2022-10-25T02:40:33.966Z,24.64
2022-10-25T02:41:35.828Z,24.63
2022-10-25T02:42:37.353Z,24.64
2022-10-25T02:43:38.868Z,24.62
2022-10-25T02:44:40.468Z,24.64
2022-10-25T02:45:42.006Z,24.64
2022-10-25T02:46:43.520Z,24.63
2022-10-25T02:47:45.592Z,24.62
2022-10-25T02:48:48.273Z,24.63
2022-10-25T02:49:49.897Z,24.66
2022-10-25T02:50:51.561Z,24.68
2022-10-25T02:51:53.197Z,24.69
2022-10-25T02:52:54.809Z,24.68
2022-10-25T02:53:56.379Z,24.68
2022-10-25T02:54:57.990Z,24.67
2022-10-25T02:56:08.365Z,24.65
2022-10-25T02:57:09.891Z,24.64
2022-10-25T02:58:11.462Z,24.65
2022-10-25T02:59:12.971Z,24.65
2022-10-25T03:00:15.115Z,24.65
2022-10-25T03:01:18.475Z,24.64
2022-10-25T03:02:20.141Z,24.65
2022-10-25T03:03:21.633Z,24.67
2022-10-25T03:04:23.289Z,24.67
2022-10-25T03:05:24.882Z,24.65
2022-10-25T03:06:26.571Z,24.64
2022-10-25T03:07:28.128Z,24.64
2022-10-25T03:08:29.685Z,24.63
2022-10-25T03:09:31.301Z,24.64
2022-10-25T03:10:32.838Z,24.64
2022-10-25T03:11:34.371Z,24.65
2022-10-25T03:12:35.953Z,24.60
2022-10-25T03:13:37.732Z,24.62
2022-10-25T03:14:39.242Z,24.63
2022-10-25T03:15:40.734Z,24.62
2022-10-25T03:16:42.381Z,24.62
2022-10-25T03:17:44.154Z,24.61
2022-10-25T03:18:45.821Z,24.61
2022-10-25T03:19:47.322Z,24.62
2022-10-25T03:20:49.558Z,24.65
2022-10-25T03:21:51.078Z,24.66
2022-10-25T03:22:52.594Z,24.64
2022-10-25T03:23:54.224Z,24.63
2022-10-25T03:24:55.748Z,24.63
2022-10-25T03:25:58.962Z,24.64
2022-10-25T03:27:01.629Z,24.63
2022-10-25T03:28:03.290Z,24.64
2022-10-25T03:29:04.814Z,24.65
2022-10-25T03:30:06.938Z,24.63
2022-10-25T03:31:16.967Z,24.60
2022-10-25T03:32:18.555Z,24.64
2022-10-25T03:33:20.338Z,24.62
2022-10-25T03:34:21.912Z,24.63
2022-10-25T03:35:23.947Z,24.61
2022-10-25T03:36:25.518Z,24.61
2022-10-25T03:37:27.124Z,24.61
2022-10-25T03:38:28.646Z,24.62
2022-10-25T03:39:30.166Z,24.63
2022-10-25T03:40:31.727Z,24.64
2022-10-25T03:41:33.256Z,24.63
2022-10-25T03:42:34.803Z,24.61
2022-10-25T03:43:36.459Z,24.61
2022-10-25T03:44:37.979Z,24.62
2022-10-25T03:45:39.622Z,24.60
2022-10-25T03:46:41.193Z,24.59
2022-10-25T03:47:42.803Z,24.58
2022-10-25T03:48:44.408Z,24.56
2022-10-25T03:49:46.183Z,24.55
2022-10-25T03:50:47.773Z,24.57
2022-10-25T03:51:52.320Z,24.58
2022-10-25T03:52:57.297Z,24.57
2022-10-25T03:53:58.935Z,24.56
2022-10-25T03:55:00.594Z,24.57
2022-10-25T03:56:02.093Z,24.56
2022-10-25T03:57:04.426Z,24.58
2022-10-25T03:58:05.965Z,24.59
2022-10-25T03:59:07.600Z,24.58
2022-10-25T04:00:09.714Z,24.58
2022-10-25T04:01:11.453Z,24.58
2022-10-25T04:02:14.413Z,24.58
2022-10-25T04:03:16.013Z,24.59
2022-10-25T04:04:17.723Z,24.59
2022-10-25T04:05:19.322Z,24.59
2022-10-25T04:06:20.906Z,24.59
2022-10-25T04:07:22.480Z,24.60
2022-10-25T04:08:24.084Z,24.59
2022-10-25T04:09:25.586Z,24.58
2022-10-25T04:10:27.235Z,24.58
2022-10-25T04:11:28.741Z,24.58
2022-10-25T04:12:30.296Z,24.58
2022-10-25T04:13:31.844Z,24.58
2022-10-25T04:14:33.391Z,24.60
2022-10-25T04:15:34.929Z,24.58
2022-10-25T04:16:36.438Z,24.57
2022-10-25T04:17:37.994Z,24.59
2022-10-25T04:18:39.554Z,24.59
2022-10-25T04:19:41.067Z,24.58
2022-10-25T04:20:42.630Z,24.58
2022-10-25T04:21:44.165Z,24.60
2022-10-25T04:22:45.703Z,24.58
2022-10-25T04:23:47.540Z,24.58
2022-10-25T04:24:49.097Z,24.59
2022-10-25T04:25:50.670Z,24.59
2022-10-25T04:26:52.160Z,24.58
2022-10-25T04:27:54.577Z,24.58
2022-10-25T04:28:56.671Z,24.58
2022-10-25T04:29:58.243Z,24.59
2022-10-25T04:30:59.843Z,24.59
2022-10-25T04:32:01.380Z,24.59
2022-10-25T04:33:02.971Z,24.59
2022-10-25T04:34:04.774Z,24.60
2022-10-25T04:35:06.628Z,24.62
2022-10-25T04:36:08.229Z,24.61
2022-10-25T04:37:09.892Z,24.60
2022-10-25T04:38:11.417Z,24.62
2022-10-25T04:39:12.963Z,24.61
2022-10-25T04:40:14.622Z,24.59
2022-10-25T04:41:16.263Z,24.58
2022-10-25T04:42:19.375Z,24.58
2022-10-25T04:43:21.005Z,24.59
2022-10-25T04:44:22.500Z,24.60
2022-10-25T04:45:24.330Z,24.59
2022-10-25T04:46:25.983Z,24.58
2022-10-25T04:47:30.740Z,24.55
2022-10-25T04:48:32.553Z,24.58
2022-10-25T04:49:34.046Z,24.58
2022-10-25T04:50:37.812Z,24.56
2022-10-25T04:51:40.043Z,24.59
2022-10-25T04:52:41.589Z,24.59
2022-10-25T04:53:43.205Z,24.60
2022-10-25T04:54:44.730Z,24.62
2022-10-25T04:55:58.495Z,24.60
2022-10-25T04:57:00.502Z,24.67
2022-10-25T04:58:02.115Z,24.67
2022-10-25T04:59:03.655Z,24.68
2022-10-25T05:00:05.791Z,24.66
2022-10-25T05:01:16.817Z,24.61
2022-10-25T05:02:18.403Z,24.67
2022-10-25T05:03:20.065Z,24.67
2022-10-25T05:04:21.678Z,24.68
2022-10-25T05:05:25.075Z,24.65
2022-10-25T05:06:27.706Z,24.68
2022-10-25T05:07:29.221Z,24.67
2022-10-25T05:08:30.719Z,24.65
2022-10-25T05:09:32.253Z,24.67
2022-10-25T05:10:33.781Z,24.67
2022-10-25T05:12:38.942Z,24.65
2022-10-25T05:13:41.690Z,24.64
2022-10-25T05:14:44.084Z,24.67
2022-10-25T05:15:53.363Z,24.68
2022-10-25T05:16:54.859Z,24.68
2022-10-25T05:18:00.343Z,24.65
2022-10-25T05:19:01.981Z,24.64
2022-10-25T05:20:03.742Z,24.68
2022-10-25T05:21:06.233Z,24.68
2022-10-25T05:22:07.749Z,24.68
2022-10-25T05:23:09.310Z,24.69
2022-10-25T05:24:10.868Z,24.70
2022-10-25T05:25:12.458Z,24.69
2022-10-25T05:26:17.170Z,24.67
2022-10-25T05:27:18.932Z,24.69
2022-10-25T05:28:20.428Z,24.70
2022-10-25T05:29:22.094Z,24.69
2022-10-25T05:30:23.604Z,24.70
2022-10-25T05:31:30.357Z,24.67
2022-10-25T05:32:31.980Z,24.72
2022-10-25T05:33:34.222Z,24.72
2022-10-25T05:34:35.790Z,24.71
2022-10-25T05:35:37.333Z,24.73
2022-10-25T05:36:38.875Z,24.74
2022-10-25T05:37:40.408Z,24.73
2022-10-25T05:38:42.280Z,24.73
2022-10-25T05:39:43.790Z,24.74
2022-10-25T05:40:52.995Z,24.71
2022-10-25T05:41:54.569Z,24.75
2022-10-25T05:42:56.161Z,24.76
2022-10-25T05:43:58.862Z,24.75
2022-10-25T05:45:00.407Z,24.75
2022-10-25T05:46:03.634Z,24.73
2022-10-25T05:47:05.156Z,24.74
2022-10-25T05:48:06.659Z,24.75
2022-10-25T05:49:08.260Z,24.77
2022-10-25T05:50:09.842Z,24.72
2022-10-25T05:51:38.567Z,24.69
2022-10-25T05:52:44.254Z,24.71
2022-10-25T05:53:51.077Z,24.70
2022-10-25T05:54:52.591Z,24.71
2022-10-25T05:55:54.113Z,24.70
2022-10-25T05:56:55.631Z,24.70
2022-10-25T05:57:57.136Z,24.70
2022-10-25T05:59:02.534Z,24.71
2022-10-25T06:00:04.859Z,24.75
2022-10-25T06:01:06.798Z,24.77
2022-10-25T06:02:09.610Z,24.78
2022-10-25T06:03:11.181Z,24.80
2022-10-25T06:04:13.471Z,24.81
2022-10-25T06:05:15.081Z,24.81
2022-10-25T06:06:18.158Z,24.78
2022-10-25T06:07:19.787Z,24.80
2022-10-25T06:08:21.335Z,24.80
2022-10-25T06:09:22.836Z,24.81
2022-10-25T06:10:24.343Z,24.82
2022-10-25T06:11:27.541Z,24.81
2022-10-25T06:12:29.077Z,24.80
2022-10-25T06:13:31.065Z,24.83
2022-10-25T06:14:32.568Z,24.79
2022-10-25T06:15:34.121Z,24.78
2022-10-25T06:16:37.864Z,24.78
2022-10-25T06:17:39.416Z,24.81
2022-10-25T06:18:41.079Z,24.81
2022-10-25T06:19:42.817Z,24.81
2022-10-25T06:20:44.361Z,24.80
2022-10-25T06:21:46.848Z,24.81
2022-10-25T06:22:48.555Z,24.79
2022-10-25T06:23:50.747Z,24.76
2022-10-25T06:24:52.279Z,24.74
2022-10-25T06:25:59.217Z,24.72
2022-10-25T06:27:00.736Z,24.74
2022-10-25T06:28:02.271Z,24.77
2022-10-25T06:29:04.847Z,24.75
2022-10-25T06:30:07.061Z,24.76
2022-10-25T06:31:11.842Z,24.74
2022-10-25T06:32:13.658Z,24.77
2022-10-25T06:33:15.169Z,24.75
2022-10-25T06:34:16.724Z,24.75
2022-10-25T06:35:18.208Z,24.74
2022-10-25T06:36:22.790Z,24.75
2022-10-25T06:37:24.285Z,24.76
2022-10-25T06:38:27.099Z,24.76
2022-10-25T06:39:28.643Z,24.75
2022-10-25T06:40:30.167Z,24.76
2022-10-25T06:41:31.689Z,24.77
2022-10-25T06:42:33.236Z,24.76
2022-10-25T06:43:34.894Z,24.77
2022-10-25T06:44:36.462Z,24.77
2022-10-25T06:45:38.033Z,24.77
2022-10-25T06:47:11.695Z,24.78
2022-10-25T06:48:02.888Z,24.79
2022-10-25T06:49:07.345Z,24.76
2022-10-25T06:51:15.650Z,24.77
2022-10-25T06:52:17.204Z,24.76
2022-10-25T06:53:18.739Z,24.77
2022-10-25T06:54:20.319Z,24.77
2022-10-25T06:55:21.896Z,24.77
2022-10-25T06:56:24.685Z,24.76
2022-10-25T06:57:26.190Z,24.77
2022-10-25T06:58:30.661Z,24.76
2022-10-25T06:59:32.214Z,24.77
2022-10-25T07:00:33.805Z,24.76
2022-10-25T07:01:35.505Z,24.78
2022-10-25T07:02:37.222Z,24.78
2022-10-25T07:03:39.599Z,24.79
2022-10-25T07:04:41.217Z,24.77
2022-10-25T07:05:42.753Z,24.79
2022-10-25T07:06:44.283Z,24.75
2022-10-25T07:07:46.197Z,24.73
2022-10-25T07:08:48.031Z,24.72
2022-10-25T07:09:49.583Z,24.71
2022-10-25T07:10:55.281Z,24.68
2022-10-25T07:11:56.829Z,24.71
2022-10-25T07:12:58.335Z,24.72
2022-10-25T07:14:00.730Z,24.72
2022-10-25T07:15:02.266Z,24.75
2022-10-25T07:16:05.944Z,24.73
2022-10-25T07:17:07.501Z,24.73
2022-10-25T07:18:09.017Z,24.74
2022-10-25T07:19:11.016Z,24.74
2022-10-25T07:20:12.560Z,24.73
2022-10-25T07:21:20.397Z,24.71
2022-10-25T07:22:21.897Z,24.70
2022-10-25T07:23:23.426Z,24.71
2022-10-25T07:24:24.947Z,24.70
2022-10-25T07:25:26.804Z,24.72
2022-10-25T07:26:31.358Z,24.72
2022-10-25T07:27:33.333Z,24.76
2022-10-25T07:28:34.902Z,24.74
2022-10-25T07:29:36.440Z,24.72
2022-10-25T07:30:38.006Z,24.74
2022-10-25T07:31:44.398Z,24.71
2022-10-25T07:32:45.959Z,24.73
2022-10-25T07:33:48.439Z,24.74
2022-10-25T07:34:49.954Z,24.74
2022-10-25T07:36:05.884Z,24.75
2022-10-25T07:37:11.599Z,24.77
2022-10-25T07:38:14.507Z,24.76
2022-10-25T07:39:16.024Z,24.76
2022-10-25T07:40:17.543Z,24.77
2022-10-25T07:41:19.187Z,24.79
2022-10-25T07:42:20.777Z,24.78
2022-10-25T07:43:22.533Z,24.78
2022-10-25T07:44:25.124Z,24.77
2022-10-25T07:45:28.891Z,24.78
2022-10-25T07:46:32.714Z,24.78
2022-10-25T07:47:34.246Z,24.75
2022-10-25T07:48:36.084Z,24.76
2022-10-25T07:49:38.859Z,24.76
2022-10-25T07:50:40.405Z,24.77
2022-10-25T07:51:42.035Z,24.75
2022-10-25T07:52:43.574Z,24.77
2022-10-25T07:53:45.291Z,24.77
2022-10-25T07:54:46.790Z,24.75
2022-10-25T07:55:52.207Z,24.74
2022-10-25T07:56:53.864Z,24.73
2022-10-25T07:58:03.324Z,24.72
2022-10-25T07:59:04.966Z,24.75
2022-10-25T08:00:08.053Z,24.74
2022-10-25T08:01:11.374Z,24.74
2022-10-25T08:02:13.895Z,24.76
2022-10-25T08:03:17.599Z,24.77
2022-10-25T08:04:19.245Z,24.76
2022-10-25T08:05:20.886Z,24.77
2022-10-25T08:06:24.033Z,24.78
2022-10-25T08:07:25.789Z,24.81
2022-10-25T08:08:28.183Z,24.79
2022-10-25T08:09:44.463Z,24.78
2022-10-25T08:10:46.170Z,24.82
2022-10-25T08:11:47.766Z,24.82
2022-10-25T08:12:49.982Z,24.85
2022-10-25T08:13:51.566Z,24.87
2022-10-25T08:14:53.073Z,24.85
2022-10-25T08:15:56.006Z,24.87
2022-10-25T08:16:57.514Z,24.90
2022-10-25T08:18:00.844Z,24.87
2022-10-25T08:19:02.390Z,24.91
2022-10-25T08:20:04.293Z,24.91
2022-10-25T08:21:05.882Z,24.89
2022-10-25T08:22:07.386Z,24.90
2022-10-25T08:23:08.908Z,24.91
2022-10-25T08:24:10.647Z,24.92
2022-10-25T08:25:12.215Z,24.95
2022-10-25T08:26:13.777Z,24.96
2022-10-25T08:27:15.311Z,24.96
2022-10-25T08:28:17.432Z,24.96
2022-10-25T08:29:19.063Z,24.99
2022-10-25T08:30:20.635Z,24.97
2022-10-25T08:31:22.275Z,24.97
2022-10-25T08:32:23.926Z,24.97
2022-10-25T08:33:25.491Z,24.95
2022-10-25T08:34:29.573Z,24.96
2022-10-25T08:35:34.233Z,24.94
2022-10-25T08:36:35.857Z,24.95
2022-10-25T08:37:37.396Z,24.95
2022-10-25T08:38:38.969Z,24.95
2022-10-25T08:39:40.576Z,24.96
2022-10-25T08:40:58.150Z,24.91
2022-10-25T08:42:01.636Z,24.97
2022-10-25T08:43:21.300Z,24.95
2022-10-25T08:44:50.846Z,24.92
2022-10-25T08:45:58.296Z,24.95
2022-10-25T08:47:07.527Z,24.97
2022-10-25T08:48:17.621Z,24.97
2022-10-25T08:49:34.415Z,24.98
2022-10-25T08:50:43.528Z,24.95
2022-10-25T08:51:47.960Z,24.97
2022-10-25T08:52:53.722Z,24.97
2022-10-25T08:54:00.336Z,24.95
2022-10-25T08:55:05.816Z,24.95
2022-10-25T08:56:16.902Z,24.95
2022-10-25T08:57:25.931Z,24.95
2022-10-25T08:58:34.967Z,24.96
2022-10-25T08:59:41.413Z,24.97
2022-10-25T09:00:45.398Z,24.98
2022-10-25T09:01:56.384Z,24.95
2022-10-25T09:03:00.119Z,24.97
2022-10-25T09:04:01.921Z,24.96
2022-10-25T09:05:04.135Z,24.96
2022-10-25T09:06:30.097Z,24.91
2022-10-25T09:07:58.342Z,24.90
2022-10-25T09:09:27.376Z,24.93
2022-10-25T09:10:36.098Z,24.94
2022-10-25T09:11:59.291Z,24.94
2022-10-25T09:13:15.354Z,24.96
2022-10-25T09:14:47.703Z,24.92
2022-10-25T09:16:01.381Z,24.92
2022-10-25T09:17:21.013Z,24.92
2022-10-25T09:18:48.376Z,24.93
2022-10-25T09:19:58.755Z,24.94
2022-10-25T09:21:07.685Z,24.93
2022-10-25T09:22:29.644Z,24.93
2022-10-25T09:23:32.538Z,24.97
2022-10-25T09:24:48.430Z,24.98
2022-10-25T09:25:58.875Z,24.98
2022-10-25T09:27:03.303Z,25.00
2022-10-25T09:28:19.206Z,24.98
2022-10-25T09:29:41.727Z,24.94
2022-10-25T09:30:44.568Z,24.97
2022-10-25T09:31:52.101Z,24.95
2022-10-25T09:33:01.403Z,24.97
2022-10-25T09:34:06.280Z,24.98
2022-10-25T09:35:16.619Z,24.99
2022-10-25T09:36:18.354Z,24.99
2022-10-25T09:37:27.103Z,24.98
2022-10-25T09:38:40.081Z,24.92
2022-10-25T09:39:49.154Z,24.92
2022-10-25T09:41:02.788Z,24.88
2022-10-25T09:42:07.545Z,24.90
2022-10-25T09:43:17.763Z,24.87
2022-10-25T09:44:25.186Z,24.91
2022-10-25T09:45:50.394Z,24.87
2022-10-25T09:46:58.009Z,24.93
2022-10-25T09:48:15.706Z,24.92
2022-10-25T09:49:49.504Z,24.89
2022-10-25T09:50:58.867Z,24.93
2022-10-25T09:52:15.222Z,24.95
2022-10-25T09:53:21.672Z,24.96
2022-10-25T09:54:39.169Z,24.90
2022-10-25T09:55:43.412Z,24.92
2022-10-25T09:56:45.063Z,24.91
2022-10-25T09:57:46.897Z,24.92
2022-10-25T09:58:49.047Z,24.92
2022-10-25T09:59:52.038Z,24.92
2022-10-25T10:00:57.166Z,24.93
2022-10-25T10:01:59.012Z,24.94
2022-10-25T10:03:00.727Z,24.93
2022-10-25T10:04:20.542Z,24.91
2022-10-25T10:05:22.686Z,24.93
2022-10-25T10:06:28.651Z,24.94
2022-10-25T10:07:35.933Z,24.96
2022-10-25T10:08:40.766Z,24.99
2022-10-25T10:09:46.129Z,25.00
2022-10-25T10:10:49.577Z,25.02
2022-10-25T10:11:54.405Z,25.00
2022-10-25T10:13:19.531Z,24.96
2022-10-25T10:14:36.524Z,24.96
2022-10-25T10:15:48.991Z,24.96
2022-10-25T10:16:56.349Z,25.00
2022-10-25T10:18:30.706Z,24.96
2022-10-25T10:19:32.291Z,25.02
2022-10-25T10:20:33.883Z,25.01
2022-10-25T10:21:37.145Z,25.01
2022-10-25T10:22:46.142Z,24.98
2022-10-25T10:23:54.434Z,24.94
2022-10-25T10:25:01.223Z,24.91
2022-10-25T10:26:29.275Z,24.88
2022-10-25T10:27:32.959Z,24.90
2022-10-25T10:28:35.846Z,24.92
2022-10-25T10:29:39.103Z,24.91
2022-10-25T10:30:41.659Z,24.92
2022-10-25T10:31:47.052Z,24.91
2022-10-25T10:32:57.080Z,24.87
2022-10-25T10:33:59.447Z,24.84
2022-10-25T10:35:03.385Z,24.91
2022-10-25T10:36:42.533Z,24.82
2022-10-25T10:37:44.151Z,24.92
2022-10-25T10:38:45.775Z,24.93
2022-10-25T10:39:48.277Z,24.93
2022-10-25T10:40:52.534Z,24.91
2022-10-25T10:42:05.190Z,24.90
2022-10-25T10:43:30.650Z,24.87
2022-10-25T10:44:36.067Z,24.95
2022-10-25T10:45:37.727Z,24.96
2022-10-25T10:46:49.227Z,24.93
2022-10-25T10:47:50.771Z,24.97
2022-10-25T10:48:58.918Z,24.95
2022-10-25T10:50:01.613Z,24.98
2022-10-25T10:51:06.587Z,24.99
2022-10-25T10:52:38.874Z,24.94
2022-10-25T10:53:40.661Z,24.99
2022-10-25T10:54:47.941Z,24.99
2022-10-25T10:55:52.454Z,25.05
2022-10-25T10:57:29.842Z,24.99
2022-10-25T10:58:42.108Z,25.02
2022-10-25T10:59:55.017Z,24.99
2022-10-25T11:01:00.799Z,25.02
2022-10-25T11:02:20.926Z,25.01
2022-10-25T11:03:48.757Z,24.99
2022-10-25T11:05:01.832Z,25.05
2022-10-25T11:06:06.616Z,25.00
2022-10-25T11:07:24.260Z,25.00
2022-10-25T11:08:26.102Z,25.08
2022-10-25T11:09:27.763Z,25.06
2022-10-25T11:10:32.431Z,25.04
2022-10-25T11:11:33.945Z,25.06
2022-10-25T11:12:40.202Z,25.08
2022-10-25T11:13:55.746Z,25.03
2022-10-25T11:14:57.289Z,25.07
2022-10-25T11:16:21.065Z,25.04
2022-10-25T11:17:32.308Z,25.09
2022-10-25T11:18:50.926Z,25.08
2022-10-25T11:20:27.909Z,25.07
2022-10-25T11:21:55.843Z,25.11
2022-10-25T11:23:06.797Z,25.12
2022-10-25T11:24:26.606Z,25.06
2022-10-25T11:25:44.243Z,25.09
2022-10-25T11:26:50.348Z,25.12
2022-10-25T11:28:26.972Z,25.10
2022-10-25T11:29:46.487Z,25.17
2022-10-25T11:31:13.293Z,25.18
2022-10-25T11:32:20.741Z,25.23
2022-10-25T11:33:33.764Z,25.21
2022-10-25T11:35:16.411Z,25.19
2022-10-25T11:36:27.122Z,25.25
2022-10-25T11:37:33.193Z,25.28
2022-10-25T11:38:53.020Z,25.26
2022-10-25T11:39:57.384Z,25.29
2022-10-25T11:41:17.941Z,25.26
2022-10-25T11:42:19.439Z,25.28
2022-10-25T11:43:32.880Z,25.23
2022-10-25T11:45:22.756Z,25.23
2022-10-25T11:47:08.889Z,25.27
2022-10-25T11:48:22.349Z,25.29
2022-10-25T11:49:42.325Z,25.31
2022-10-25T11:50:52.199Z,25.29
2022-10-25T11:53:24.730Z,25.31
2022-10-25T11:54:50.597Z,25.27
2022-10-25T11:55:58.673Z,25.27
2022-10-25T11:57:34.048Z,25.26
2022-10-25T11:58:44.593Z,25.27
2022-10-25T12:00:07.094Z,25.28
2022-10-25T12:01:26.691Z,25.32
2022-10-25T12:02:47.096Z,25.28
2022-10-25T12:03:55.363Z,25.31
2022-10-25T12:05:15.112Z,25.32
2022-10-25T12:06:38.607Z,25.31
2022-10-25T12:08:14.449Z,25.30
2022-10-25T12:10:11.294Z,25.29
2022-10-25T12:11:19.410Z,25.36
2022-10-25T12:12:25.983Z,25.35
2022-10-25T12:13:36.740Z,25.32
2022-10-25T12:14:42.503Z,25.35
2022-10-25T12:15:50.150Z,25.35
2022-10-25T12:16:51.809Z,25.36
2022-10-25T12:17:54.023Z,25.36
2022-10-25T12:19:19.386Z,25.32
2022-10-25T12:20:25.961Z,25.34
2022-10-25T12:21:41.550Z,25.33
2022-10-25T12:22:49.069Z,25.36
2022-10-25T12:23:53.801Z,25.39
2022-10-25T12:25:02.521Z,25.35
2022-10-25T12:26:12.310Z,25.33
2022-10-25T12:27:17.397Z,25.36
2022-10-25T12:28:37.647Z,25.33
2022-10-25T12:29:44.134Z,25.37
2022-10-25T12:30:47.622Z,25.38
2022-10-25T12:31:56.743Z,25.38
2022-10-25T12:33:24.183Z,25.35
2022-10-25T12:34:43.023Z,25.39
2022-10-25T12:35:50.879Z,25.38
2022-10-25T12:36:56.558Z,25.40
2022-10-25T12:38:06.845Z,25.39
2022-10-25T12:39:18.201Z,25.39
2022-10-25T12:40:22.282Z,25.40
2022-10-25T12:41:27.990Z,25.40
2022-10-25T12:42:36.270Z,25.37
2022-10-25T12:43:52.626Z,25.38
2022-10-25T12:44:57.071Z,25.41
2022-10-25T12:46:16.855Z,25.38
2022-10-25T12:47:21.494Z,25.38
2022-10-25T12:48:44.078Z,25.37
2022-10-25T12:50:11.326Z,25.37
2022-10-25T12:51:27.773Z,25.39
2022-10-25T12:53:11.237Z,25.37
2022-10-25T12:54:15.660Z,25.44
2022-10-25T12:55:35.604Z,25.40
2022-10-25T12:57:26.723Z,25.39
2022-10-25T12:59:04.773Z,25.40
2022-10-25T13:00:11.774Z,25.38
2022-10-25T13:01:41.899Z,25.34
2022-10-25T13:03:17.094Z,25.33
2022-10-25T13:04:49.020Z,25.33
2022-10-25T13:06:17.886Z,25.35
2022-10-25T13:07:21.679Z,25.36
2022-10-25T13:08:25.885Z,25.38
2022-10-25T13:09:32.524Z,25.35
2022-10-25T13:10:43.159Z,25.32
2022-10-25T13:11:59.426Z,25.33
2022-10-25T13:13:05.370Z,25.38
2022-10-25T13:14:23.572Z,25.36
2022-10-25T13:15:25.169Z,25.41
2022-10-25T13:16:29.917Z,25.42
2022-10-25T13:17:40.579Z,25.39
2022-10-25T13:18:47.319Z,25.43
2022-10-25T13:19:55.305Z,25.46
2022-10-25T13:20:58.250Z,25.45
2022-10-25T13:21:59.726Z,25.46
2022-10-25T13:23:21.420Z,25.46
2022-10-25T13:24:41.662Z,25.41
2022-10-25T13:25:49.091Z,25.42
2022-10-25T13:27:12.417Z,25.39
2022-10-25T13:28:13.872Z,25.44
2022-10-25T13:30:02.478Z,25.39
2022-10-25T13:31:35.085Z,25.38
2022-10-25T13:32:41.460Z,25.41
2022-10-25T13:33:43.019Z,25.43
2022-10-25T13:34:44.949Z,25.44
2022-10-25T13:35:49.436Z,25.42
2022-10-25T13:36:57.664Z,25.44
2022-10-25T13:38:10.855Z,25.40
2022-10-25T13:39:18.182Z,25.43
2022-10-25T13:40:30.055Z,25.47
2022-10-25T13:41:44.953Z,25.43
2022-10-25T13:42:49.449Z,25.46
2022-10-25T13:44:21.497Z,25.40
2022-10-25T13:45:33.465Z,25.42
2022-10-25T13:46:40.730Z,25.42
2022-10-25T13:47:52.793Z,25.42
2022-10-25T13:48:54.873Z,25.46
2022-10-25T13:49:56.770Z,25.48
2022-10-25T13:51:10.126Z,25.37
2022-10-25T13:52:34.277Z,25.35
2022-10-25T13:53:41.994Z,25.39
2022-10-25T13:54:50.329Z,25.37
2022-10-25T13:56:06.124Z,25.36
2022-10-25T13:57:45.684Z,25.36
2022-10-25T13:58:48.718Z,25.43
2022-10-25T13:59:50.170Z,25.43
2022-10-25T14:00:53.684Z,25.42
2022-10-25T14:02:15.380Z,25.34
2022-10-25T14:03:17.218Z,25.40
2022-10-25T14:04:33.732Z,25.39
2022-10-25T14:06:22.769Z,25.37
2022-10-25T14:07:44.282Z,25.36
2022-10-25T14:09:14.953Z,25.40
2022-10-25T14:10:24.638Z,25.41
2022-10-25T14:11:48.515Z,25.40
2022-10-25T14:12:58.703Z,25.42
2022-10-25T14:14:13.868Z,25.40
2022-10-25T14:15:23.432Z,25.41
2022-10-25T14:16:30.082Z,25.45
2022-10-25T14:17:41.542Z,25.44
2022-10-25T14:18:43.883Z,25.46
2022-10-25T14:19:55.235Z,25.40
2022-10-25T14:21:01.923Z,25.43
2022-10-25T14:22:04.823Z,25.45
2022-10-25T14:23:13.109Z,25.45
2022-10-25T14:24:16.804Z,25.42
2022-10-25T14:25:18.250Z,25.44
2022-10-25T14:26:21.365Z,25.43
2022-10-25T14:27:40.938Z,25.41
2022-10-25T14:28:42.905Z,25.49
2022-10-25T14:29:44.473Z,25.50